Wigton, United Kingdom
Current Conditions -  °F | °C
As of 4:50 PM on Sunday 21 Dec 2014 (Local Time) from EGOM Reporting Station
Haze Haze  
Wind Chill:   Ceiling: NA
Heat Index:   Visibility: 3mi
Dew Point:   Wind: 37mph
Humidity: 100%   Direction: 240°WSW
Pressure: 29.74"   Gusts: 49mph
Location:  54.82°N, 3.16°W
Report Text: EGOM 211650Z AUTO 24032G43KT 5000 BR ///////// 09/09 Q1007 REDZ
Loading
Personal Weather Stations






























Interactive Weather Map New forecast layout! Learn more

10-Day Weather Forecast

Advertisements
Track Severe Weather on mobile